Time;durP1;ratioP1;P1;durP2;ratioP2;P2;SDS_P1;SDS_P2;PMS_P1;PMS_P2;Temp;Humidity;BMP_temperature;BMP_pressure;BME280_temperature;BME280_humidity;BME280_pressure;Samples;Min_cycle;Max_cycle;Signal;HPM_P1;HPM_P2
2021/12/31 00:00:11;;;;;;;4.13;3.38;;;;;;;11.65;81.91;99246.16;4121598;28;20206;-56
2021/12/31 00:02:13;;;;;;;6.50;3.65;;;;;;;11.80;81.51;99242.94;4134535;28;20213;-58
2021/12/31 00:04:15;;;;;;;8.38;4.40;;;;;;;11.69;81.67;99244.63;4123066;28;20305;-55
2021/12/31 00:06:16;;;;;;;3.40;3.05;;;;;;;11.73;81.52;99244.97;4124055;28;20595;-56
2021/12/31 00:08:18;;;;;;;5.07;2.88;;;;;;;11.69;81.30;99244.63;4108019;28;20720;-57
2021/12/31 00:10:20;;;;;;;5.53;3.20;;;;;;;11.67;81.48;99249.53;4126046;28;20202;-56
2021/12/31 00:12:21;;;;;;;7.32;2.75;;;;;;;11.76;81.28;99248.06;4123032;28;20771;-58
2021/12/31 00:14:23;;;;;;;5.38;3.53;;;;;;;11.67;81.49;99260.47;4105339;28;20289;-56
2021/12/31 00:16:25;;;;;;;5.05;3.63;;;;;;;11.73;81.23;99253.19;4125057;28;20750;-55
2021/12/31 00:18:27;;;;;;;5.93;3.33;;;;;;;11.76;81.56;99255.47;4125982;28;20313;-56
2021/12/31 00:20:29;;;;;;;5.93;3.78;;;;;;;11.68;81.53;99253.91;4139557;28;20210;-55
2021/12/31 00:24:38;;;;;;;5.40;2.38;;;;;;;11.70;81.30;99259.19;4139063;28;20224;-58
2021/12/31 00:26:40;;;;;;;7.95;3.38;;;;;;;11.66;81.43;99261.56;4123006;28;20296;-56
2021/12/31 00:28:42;;;;;;;4.60;3.55;;;;;;;11.72;81.65;99257.03;4126505;28;20715;-56
2021/12/31 00:30:44;;;;;;;6.78;3.17;;;;;;;11.66;81.49;99261.56;4124467;28;20249;-56
2021/12/31 00:32:46;;;;;;;6.35;3.47;;;;;;;11.58;81.81;99253.66;4124182;28;20234;-57
2021/12/31 00:34:49;;;;;;;4.47;4.05;;;;;;;11.63;81.46;99247.50;4128565;28;20830;-56
2021/12/31 00:36:51;;;;;;;4.68;3.38;;;;;;;11.59;81.67;99246.28;4122954;28;20245;-56
2021/12/31 00:38:53;;;;;;;5.82;2.92;;;;;;;11.66;81.29;99242.38;4127579;28;20962;-59
2021/12/31 00:40:54;;;;;;;6.55;3.03;;;;;;;11.61;81.58;99238.66;4124286;28;20224;-54
2021/12/31 00:42:56;;;;;;;7.28;3.30;;;;;;;11.60;81.70;99239.72;4123519;28;20726;-55
2021/12/31 00:44:58;;;;;;;7.70;3.40;;;;;;;11.57;81.33;99238.28;4120723;28;20229;-54
2021/12/31 00:47:00;;;;;;;4.97;3.53;;;;;;;11.56;81.69;99238.53;4124284;28;20208;-57
2021/12/31 00:49:03;;;;;;;6.45;3.03;;;;;;;11.57;81.78;99238.28;4139510;28;20216;-56
2021/12/31 00:51:05;;;;;;;7.97;3.40;;;;;;;11.52;81.61;99227.19;4138208;28;20213;-56
2021/12/31 00:53:07;;;;;;;4.93;2.90;;;;;;;11.50;81.61;99232.06;4110437;28;20612;-56
2021/12/31 00:55:10;;;;;;;3.88;2.97;;;;;;;11.47;81.88;99227.09;4133827;28;20304;-55
2021/12/31 00:57:12;;;;;;;7.47;3.03;;;;;;;11.44;81.96;99222.06;4135812;28;20758;-57
2021/12/31 00:59:14;;;;;;;5.72;2.92;;;;;;;11.42;82.09;99213.25;4122918;28;20210;-55
2021/12/31 01:01:21;;;;;;;5.05;2.85;;;;;;;11.52;81.59;99213.47;4122543;28;20583;-56
2021/12/31 01:03:23;;;;;;;7.88;3.80;;;;;;;11.46;81.63;99213.63;4125935;28;20276;-56
2021/12/31 01:05:24;;;;;;;7.07;3.55;;;;;;;11.41;81.94;99219.81;4120993;28;20632;-58
2021/12/31 01:07:27;;;;;;;7.63;3.75;;;;;;;11.36;82.24;99218.84;4119927;28;20234;-54
2021/12/31 01:09:30;;;;;;;3.85;3.45;;;;;;;11.32;82.40;99221.22;4110758;28;20257;-57
2021/12/31 01:11:33;;;;;;;5.15;3.22;;;;;;;11.34;82.37;99219.09;4121835;28;20281;-56
2021/12/31 01:13:48;;;;;;;5.57;3.58;;;;;;;11.29;82.30;99212.63;4120664;28;20248;-58
2021/12/31 01:15:56;;;;;;;8.30;5.05;;;;;;;11.39;82.32;99212.91;4123675;28;20712;-56
2021/12/31 01:20:02;;;;;;;5.60;4.30;;;;;;;11.37;82.09;99226.81;4138398;28;20225;-56
2021/12/31 01:22:03;;;;;;;5.63;4.07;;;;;;;11.41;81.95;99217.06;4121615;28;20314;-59
2021/12/31 01:24:05;;;;;;;6.93;3.58;;;;;;;11.33;82.05;99217.44;4121770;28;20218;-57
2021/12/31 01:26:07;;;;;;;19.73;5.90;;;;;;;11.30;82.03;99220.63;4123326;28;20238;-58
2021/12/31 01:28:09;;;;;;;7.55;5.00;;;;;;;11.37;81.93;99213.13;4127350;28;20314;-56
2021/12/31 01:30:13;;;;;;;7.85;5.32;;;;;;;11.29;82.26;99216.22;4120742;28;20197;-56
2021/12/31 01:32:15;;;;;;;7.38;4.72;;;;;;;11.38;81.95;99211.22;4109433;28;20219;-57
2021/12/31 01:34:16;;;;;;;12.98;6.13;;;;;;;11.35;82.08;99209.81;4119418;28;20580;-56
2021/12/31 01:36:18;;;;;;;8.60;6.68;;;;;;;11.30;82.03;99204.19;4128248;28;20639;-56
2021/12/31 01:38:20;;;;;;;12.02;7.75;;;;;;;11.35;82.07;99206.22;4121167;28;20258;-56
2021/12/31 01:40:22;;;;;;;10.00;8.52;;;;;;;11.24;82.44;99202.41;4119703;28;20234;-56
2021/12/31 01:42:30;;;;;;;10.40;7.20;;;;;;;11.21;82.36;99216.59;4125459;28;20292;-56
2021/12/31 01:44:38;;;;;;;8.95;5.70;;;;;;;11.19;82.77;99207.78;4104781;28;20234;-55
2021/12/31 01:47:15;;;;;;;8.80;5.18;;;;;;;11.19;82.56;99210.53;4136545;28;20259;-56
2021/12/31 01:49:22;;;;;;;6.63;5.90;;;;;;;11.23;82.70;99206.22;4089369;28;20903;-55
2021/12/31 01:51:25;;;;;;;6.13;4.40;;;;;;;11.25;82.46;99209.53;4110070;28;20242;-56
2021/12/31 01:53:27;;;;;;;7.50;3.65;;;;;;;11.20;82.53;99206.72;4126949;28;20206;-56
2021/12/31 01:55:32;;;;;;;4.20;3.38;;;;;;;11.27;82.50;99212.91;4124477;28;20230;-56
2021/12/31 01:57:34;;;;;;;5.80;4.32;;;;;;;11.21;82.69;99205.63;4125046;28;20230;-60
2021/12/31 01:59:38;;;;;;;5.93;3.78;;;;;;;11.33;82.37;99209.22;4123840;28;20305;-57
2021/12/31 02:01:39;;;;;;;7.13;3.30;;;;;;;11.22;82.23;99212.78;4131612;28;20256;-57
2021/12/31 02:03:41;;;;;;;5.03;3.25;;;;;;;11.23;82.27;99221.84;4123060;28;20727;-54
2021/12/31 02:05:43;;;;;;;5.53;4.13;;;;;;;11.22;82.44;99221.00;4121549;28;20322;-55
2021/12/31 02:07:44;;;;;;;3.90;3.60;;;;;;;11.37;81.90;99226.81;4125961;28;20762;-57
2021/12/31 02:09:54;;;;;;;7.30;3.70;;;;;;;11.29;82.02;99227.19;4125486;28;20206;-58
2021/12/31 02:11:55;;;;;;;4.95;3.55;;;;;;;11.30;82.01;99231.59;4119439;28;20202;-56
2021/12/31 02:13:58;;;;;;;7.07;3.40;;;;;;;11.34;82.02;99224.56;4120470;28;20214;-56
2021/12/31 02:16:00;;;;;;;8.02;3.40;;;;;;;11.28;82.23;99222.78;4109045;28;20798;-56
2021/12/31 02:18:03;;;;;;;4.85;2.92;;;;;;;11.28;82.53;99227.41;4134645;28;20225;-59
2021/12/31 02:20:07;;;;;;;4.70;2.92;;;;;;;11.30;82.20;99233.50;4119682;28;20248;-56
2021/12/31 02:22:08;;;;;;;4.97;2.70;;;;;;;11.27;82.17;99232.06;4137195;28;20225;-55
2021/12/31 02:24:12;;;;;;;4.30;2.95;;;;;;;11.28;82.24;99238.38;4124344;28;20206;-55
2021/12/31 02:26:14;;;;;;;5.25;2.70;;;;;;;11.29;82.48;99234.56;4136089;28;20698;-55
2021/12/31 02:28:16;;;;;;;4.70;2.95;;;;;;;11.32;82.20;99229.44;4118537;28;20226;-56
2021/12/31 02:30:17;;;;;;;4.18;3.08;;;;;;;11.30;82.49;99226.09;4122626;28;20215;-58
2021/12/31 02:32:19;;;;;;;3.15;2.72;;;;;;;11.29;82.57;99232.66;4125966;28;20219;-57
2021/12/31 02:34:21;;;;;;;5.32;2.55;;;;;;;11.26;82.36;99233.16;4125219;28;20236;-58
2021/12/31 02:36:24;;;;;;;4.03;3.08;;;;;;;11.28;82.52;99228.25;4121963;28;20214;-58
2021/12/31 02:38:25;;;;;;;4.43;2.88;;;;;;;11.27;82.50;99237.56;4118123;28;20256;-55
2021/12/31 02:40:28;;;;;;;4.97;3.80;;;;;;;11.27;82.21;99234.81;4136099;28;22576;-55
2021/12/31 02:42:31;;;;;;;3.90;2.97;;;;;;;11.22;82.16;99234.69;4121525;28;20198;-55
2021/12/31 02:44:33;;;;;;;3.05;2.85;;;;;;;11.23;82.33;99236.34;4125238;28;20580;-56
2021/12/31 02:46:37;;;;;;;4.85;3.20;;;;;;;11.22;82.40;99251.13;4125625;28;20237;-58
2021/12/31 02:48:39;;;;;;;5.68;2.75;;;;;;;11.22;82.45;99251.13;4122832;28;20236;-57
2021/12/31 02:50:42;;;;;;;5.43;3.20;;;;;;;11.22;82.27;99250.28;4108838;28;20246;-57
2021/12/31 02:52:45;;;;;;;5.53;3.30;;;;;;;11.24;82.51;99250.91;4127320;28;20206;-60
2021/12/31 02:54:48;;;;;;;5.30;3.05;;;;;;;11.17;82.19;99248.25;4139238;28;20209;-56
2021/12/31 02:56:50;;;;;;;5.45;3.25;;;;;;;11.16;82.54;99251.22;4124256;28;20210;-56
2021/12/31 02:58:52;;;;;;;4.85;2.83;;;;;;;11.18;82.51;99252.66;4106790;28;20250;-57
2021/12/31 03:00:53;;;;;;;4.82;4.32;;;;;;;11.07;82.44;99253.50;4122026;28;20632;-58
2021/12/31 03:02:58;;;;;;;7.65;3.35;;;;;;;11.08;82.64;99255.16;4111393;28;20636;-58
2021/12/31 03:05:01;;;;;;;3.80;2.83;;;;;;;11.09;82.67;99259.56;4135810;28;20211;-58
2021/12/31 03:07:05;;;;;;;4.15;2.90;;;;;;;11.10;82.69;99250.25;4124412;28;20292;-59
2021/12/31 03:09:07;;;;;;;4.90;3.95;;;;;;;11.16;82.18;99248.47;4106694;28;20204;-57
2021/12/31 03:11:09;;;;;;;3.72;3.35;;;;;;;11.11;82.50;99246.44;4124006;28;20264;-57
2021/12/31 03:13:13;;;;;;;4.43;4.03;;;;;;;11.04;82.38;99253.13;4124057;28;20292;-56
2021/12/31 03:15:15;;;;;;;7.32;4.47;;;;;;;10.97;82.61;99245.00;4121193;28;20208;-55
2021/12/31 03:17:18;;;;;;;6.03;3.50;;;;;;;11.09;82.24;99234.91;4110558;28;20262;-56
2021/12/31 03:19:21;;;;;;;9.88;5.18;;;;;;;11.05;82.55;99227.41;4126202;28;20292;-58
2021/12/31 03:21:22;;;;;;;10.15;6.95;;;;;;;10.98;82.67;99232.16;4136347;28;20214;-59
2021/12/31 03:23:25;;;;;;;11.23;4.88;;;;;;;11.01;82.75;99226.19;4126771;28;20668;-58
2021/12/31 03:25:26;;;;;;;6.13;5.53;;;;;;;11.04;82.74;99226.56;4120679;28;20238;-59
2021/12/31 03:27:28;;;;;;;6.15;5.03;;;;;;;11.09;82.80;99232.16;4124023;28;20222;-58
2021/12/31 03:29:30;;;;;;;4.88;4.15;;;;;;;11.12;82.37;99225.38;4108007;28;20290;-55
2021/12/31 03:31:32;;;;;;;8.25;4.53;;;;;;;11.10;82.65;99225.63;4120764;28;20218;-57
2021/12/31 03:33:34;;;;;;;6.72;4.15;;;;;;;11.01;82.58;99227.03;4123653;28;20207;-55
2021/12/31 03:35:35;;;;;;;4.70;4.22;;;;;;;10.97;82.79;99223.09;4125243;28;20281;-56
2021/12/31 03:37:37;;;;;;;4.70;4.32;;;;;;;10.99;82.84;99231.94;4127198;28;20316;-60
2021/12/31 03:39:39;;;;;;;3.85;3.47;;;;;;;11.00;82.89;99224.53;4110593;28;20269;-54
2021/12/31 03:41:41;;;;;;;11.00;4.97;;;;;;;10.98;82.98;99230.22;4122736;28;20207;-55
2021/12/31 03:43:43;;;;;;;6.00;4.30;;;;;;;11.01;82.82;99224.31;4143866;28;20201;-56
2021/12/31 03:45:46;;;;;;;5.45;3.67;;;;;;;11.00;83.00;99225.38;4122964;28;20256;-55
2021/12/31 03:47:48;;;;;;;4.63;3.95;;;;;;;11.03;82.71;99224.06;4126085;28;20230;-57
2021/12/31 03:49:50;;;;;;;5.50;4.03;;;;;;;10.96;82.89;99232.38;4107096;28;20669;-58
2021/12/31 03:51:52;;;;;;;4.93;3.35;;;;;;;10.98;82.52;99222.00;4104837;28;20238;-60
2021/12/31 03:53:53;;;;;;;5.85;4.75;;;;;;;10.91;82.89;99224.03;4122970;28;20284;-61
2021/12/31 03:55:55;;;;;;;5.43;4.43;;;;;;;10.88;82.93;99227.25;4122978;28;20638;-59
2021/12/31 03:57:57;;;;;;;4.38;3.67;;;;;;;10.83;83.32;99224.38;4122280;28;20260;-58
2021/12/31 03:59:59;;;;;;;9.35;5.13;;;;;;;10.81;83.37;99231.16;4128047;28;20213;-58
2021/12/31 04:02:00;;;;;;;5.00;4.65;;;;;;;10.90;83.33;99218.81;4112311;28;20198;-57
2021/12/31 04:04:02;;;;;;;5.63;3.70;;;;;;;10.92;82.97;99212.00;4125142;28;20213;-57
2021/12/31 04:06:04;;;;;;;5.65;4.15;;;;;;;10.88;83.04;99203.69;4124389;28;20305;-56
2021/12/31 04:08:06;;;;;;;5.30;4.15;;;;;;;10.82;83.29;99213.66;4124258;28;20222;-57
2021/12/31 04:10:08;;;;;;;8.05;4.00;;;;;;;10.82;83.39;99217.22;4120199;28;20244;-56
2021/12/31 04:12:10;;;;;;;6.28;3.80;;;;;;;10.87;83.19;99215.72;4104320;28;20241;-58
2021/12/31 04:14:11;;;;;;;4.85;3.63;;;;;;;10.90;83.22;99208.66;4138147;28;20221;-58
2021/12/31 04:16:13;;;;;;;7.78;4.60;;;;;;;10.82;83.37;99210.09;4108361;28;20211;-57
2021/12/31 04:18:15;;;;;;;3.90;3.25;;;;;;;10.87;83.32;99202.00;4136673;28;20233;-58
2021/12/31 04:21:01;;;;;;;5.43;3.55;;;;;;;10.91;83.36;99193.91;4137121;28;20206;-55
2021/12/31 04:22:50;;;;;;;3.72;3.10;;;;;;;10.87;83.36;99197.34;4126053;28;20248;-57
2021/12/31 04:24:52;;;;;;;3.72;3.42;;;;;;;10.87;83.06;99188.31;4119546;28;20289;-58
2021/12/31 04:26:55;;;;;;;3.65;3.28;;;;;;;10.81;83.22;99178.31;4120208;28;20247;-57
2021/12/31 04:28:56;;;;;;;9.98;3.42;;;;;;;10.84;83.24;99182.22;4138945;28;20225;-58
2021/12/31 04:30:58;;;;;;;4.28;3.00;;;;;;;10.79;82.94;99173.88;4118965;28;20206;-57
2021/12/31 04:33:01;;;;;;;5.70;3.85;;;;;;;10.70;83.38;99163.53;4121544;28;20225;-59
2021/12/31 04:35:03;;;;;;;7.72;4.13;;;;;;;10.70;83.44;99169.00;4138541;28;20209;-56
2021/12/31 04:37:04;;;;;;;5.65;2.95;;;;;;;10.80;83.30;99163.78;4121495;28;20225;-56
2021/12/31 04:39:06;;;;;;;2.67;2.47;;;;;;;10.82;82.40;99159.75;4104285;28;20293;-56
2021/12/31 04:41:08;;;;;;;3.95;3.08;;;;;;;10.64;82.55;99159.00;4120069;28;20676;-57
2021/12/31 04:43:10;;;;;;;4.40;3.00;;;;;;;10.57;82.56;99154.69;4109277;28;20238;-57
2021/12/31 04:45:13;;;;;;;7.05;2.75;;;;;;;10.67;82.00;99157.69;4121321;28;20567;-58
2021/12/31 04:47:14;;;;;;;3.17;2.80;;;;;;;10.56;82.32;99162.06;4121579;28;20210;-60
2021/12/31 04:49:16;;;;;;;3.42;3.00;;;;;;;10.57;82.31;99160.16;4123062;28;20229;-58
2021/12/31 04:51:18;;;;;;;3.78;2.70;;;;;;;10.57;82.08;99146.47;4136056;28;20256;-56
2021/12/31 04:53:20;;;;;;;4.80;2.50;;;;;;;10.50;82.31;99159.44;4119467;28;20222;-58
2021/12/31 04:55:22;;;;;;;9.27;2.70;;;;;;;10.50;82.07;99162.16;4107808;28;20210;-57
2021/12/31 04:57:25;;;;;;;2.50;2.25;;;;;;;10.55;81.70;99156.84;4114976;28;20611;-56
2021/12/31 04:59:27;;;;;;;3.70;2.42;;;;;;;10.48;81.99;99156.09;4138626;28;20700;-57
2021/12/31 05:01:29;;;;;;;4.05;2.72;;;;;;;10.43;81.85;99158.69;4117641;28;20210;-57
2021/12/31 05:03:31;;;;;;;7.63;2.72;;;;;;;10.43;81.75;99161.44;4134141;28;20300;-57
2021/12/31 05:05:32;;;;;;;5.40;2.88;;;;;;;10.39;82.11;99160.22;4120864;28;20406;-56
2021/12/31 05:07:34;;;;;;;3.35;2.70;;;;;;;10.39;81.83;99165.69;4111581;28;20225;-56
2021/12/31 05:09:36;;;;;;;4.78;2.67;;;;;;;10.30;82.00;99161.63;4122106;28;20260;-57
2021/12/31 05:11:38;;;;;;;3.95;2.45;;;;;;;10.30;82.15;99157.00;4106226;28;20246;-58
2021/12/31 05:13:40;;;;;;;3.88;2.78;;;;;;;10.25;82.43;99158.75;4121302;28;20205;-57
2021/12/31 05:15:48;;;;;;;4.90;3.13;;;;;;;10.23;82.50;99160.88;4132905;28;20300;-56
2021/12/31 05:17:50;;;;;;;4.55;3.15;;;;;;;10.23;82.68;99155.41;4107134;28;20278;-58
2021/12/31 05:19:52;;;;;;;6.13;2.95;;;;;;;10.18;82.93;99163.47;4126909;28;20209;-57
2021/12/31 05:21:53;;;;;;;3.25;2.95;;;;;;;10.20;82.73;99161.34;4120763;28;20569;-55
2021/12/31 05:23:55;;;;;;;5.45;2.88;;;;;;;10.14;82.60;99162.28;4123826;28;20771;-58
2021/12/31 05:25:57;;;;;;;3.58;2.85;;;;;;;10.11;82.82;99162.72;4118623;28;20278;-57
2021/12/31 05:27:58;;;;;;;3.70;2.80;;;;;;;10.10;83.00;99172.00;4113720;28;20230;-61
2021/12/31 05:30:00;;;;;;;2.70;2.50;;;;;;;10.11;83.12;99168.19;4102209;28;20246;-57
2021/12/31 05:32:03;;;;;;;5.00;3.13;;;;;;;10.06;83.18;99160.69;4119412;28;20268;-57
2021/12/31 05:34:05;;;;;;;3.67;2.30;;;;;;;10.01;83.15;99162.44;4120299;28;20237;-57
2021/12/31 05:36:07;;;;;;;2.00;1.85;;;;;;;10.01;82.98;99162.44;4121064;28;20229;-55
2021/12/31 05:38:12;;;;;;;3.38;2.15;;;;;;;9.96;82.97;99159.53;4123973;28;20659;-56
2021/12/31 05:40:14;;;;;;;9.63;2.92;;;;;;;9.90;82.60;99155.84;4127109;28;20206;-58
2021/12/31 05:42:16;;;;;;;3.40;2.47;;;;;;;9.81;82.51;99156.38;4119986;28;20264;-57
2021/12/31 05:46:21;;;;;;;2.47;2.28;;;;;;;9.71;82.95;99170.59;4093380;28;20776;-65
2021/12/31 05:48:23;;;;;;;2.83;1.77;;;;;;;9.68;82.83;99172.94;4091062;28;20306;-65
2021/12/31 05:50:28;;;;;;;4.35;2.92;;;;;;;9.65;82.58;99178.84;4089784;28;20582;-65
2021/12/31 05:52:30;;;;;;;5.90;3.03;;;;;;;9.63;82.71;99175.53;4089945;28;20223;-66
2021/12/31 05:54:31;;;;;;;3.33;2.45;;;;;;;9.63;82.35;99186.44;4088857;28;20231;-65
2021/12/31 05:56:32;;;;;;;2.28;2.17;;;;;;;9.51;82.21;99183.63;4098235;28;20257;-66
2021/12/31 05:58:34;;;;;;;4.60;2.50;;;;;;;9.47;82.63;99192.50;4098095;28;20783;-65
2021/12/31 06:00:35;;;;;;;2.70;2.45;;;;;;;9.49;82.59;99190.38;4087722;28;20226;-65
2021/12/31 06:02:37;;;;;;;5.38;2.25;;;;;;;9.51;82.67;99188.25;4088088;29;20298;-65
2021/12/31 06:04:39;;;;;;;3.58;2.70;;;;;;;9.43;82.88;99196.75;4085890;28;20246;-66
2021/12/31 06:06:44;;;;;;;3.42;3.13;;;;;;;9.39;82.73;99192.78;4089794;29;20237;-65
2021/12/31 06:08:46;;;;;;;3.15;2.70;;;;;;;9.33;82.77;99208.19;4099610;28;20598;-66
2021/12/31 06:10:48;;;;;;;5.65;2.38;;;;;;;9.35;82.25;99205.25;4090147;29;21046;-65
2021/12/31 06:12:50;;;;;;;4.95;3.03;;;;;;;9.30;82.47;99192.28;4103342;28;20245;-65
2021/12/31 06:14:54;;;;;;;4.35;2.42;;;;;;;9.36;82.05;99190.53;4105766;28;20742;-65
2021/12/31 06:17:02;;;;;;;2.90;2.65;;;;;;;9.22;82.51;99178.06;4090127;29;20614;-65
2021/12/31 06:19:04;;;;;;;3.50;2.47;;;;;;;9.18;82.32;99187.75;4091607;28;20235;-65
2021/12/31 06:21:07;;;;;;;2.78;2.58;;;;;;;9.14;82.25;99183.81;4096805;28;20203;-65
2021/12/31 06:23:08;;;;;;;4.10;3.70;;;;;;;9.01;82.48;99182.03;4095346;28;20730;-65
2021/12/31 06:25:10;;;;;;;3.35;2.40;;;;;;;9.02;82.89;99182.88;4096336;28;20209;-65
2021/12/31 06:27:12;;;;;;;2.63;2.30;;;;;;;9.19;82.03;99183.97;4096987;28;20710;-63
2021/12/31 06:29:13;;;;;;;2.97;2.72;;;;;;;9.06;82.20;99184.09;4092153;28;20241;-63
2021/12/31 06:31:16;;;;;;;3.15;2.95;;;;;;;9.04;82.92;99186.22;4105343;28;20235;-63
2021/12/31 06:33:17;;;;;;;3.13;2.65;;;;;;;8.99;82.87;99180.59;4076461;29;20212;-63
2021/12/31 06:35:19;;;;;;;5.68;2.70;;;;;;;8.93;82.74;99184.22;4094208;29;20299;-63
2021/12/31 06:37:21;;;;;;;3.53;2.70;;;;;;;8.91;82.68;99192.63;4095214;28;21233;-63
2021/12/31 06:39:23;;;;;;;8.90;2.75;;;;;;;8.88;83.13;99192.25;4097113;28;20258;-64
2021/12/31 06:41:24;;;;;;;2.42;2.22;;;;;;;8.85;83.15;99190.78;4094977;29;20210;-65
2021/12/31 06:43:26;;;;;;;2.00;1.80;;;;;;;8.78;81.98;99194.63;4089083;28;20595;-64
2021/12/31 06:45:27;;;;;;;2.83;2.10;;;;;;;8.76;82.29;99199.47;4092150;28;20228;-65
2021/12/31 06:47:29;;;;;;;4.43;2.80;;;;;;;8.98;81.75;99195.28;4097501;28;20207;-65
2021/12/31 06:49:30;;;;;;;4.75;3.03;;;;;;;8.87;81.69;99185.09;4098394;28;20206;-66
2021/12/31 06:51:32;;;;;;;4.47;2.75;;;;;;;8.84;82.43;99191.88;4101198;28;20583;-65
2021/12/31 06:53:33;;;;;;;3.40;2.83;;;;;;;8.78;82.35;99191.91;4099059;28;20654;-65
2021/12/31 06:55:35;;;;;;;3.03;2.72;;;;;;;8.77;83.13;99184.78;4112195;28;20213;-63
2021/12/31 06:57:37;;;;;;;5.22;3.05;;;;;;;8.72;82.63;99180.00;4100544;28;20717;-65
2021/12/31 06:59:39;;;;;;;3.28;2.92;;;;;;;8.76;82.11;99183.09;4092315;28;20324;-66
2021/12/31 07:29:29;;;;;;;3.25;2.95;;;;;;;8.23;82.27;99187.25;4521855;23;20251;-85
2021/12/31 07:31:30;;;;;;;5.10;4.10;;;;;;;8.21;82.43;99194.81;4105419;28;20226;-86
2021/12/31 07:33:32;;;;;;;3.63;3.33;;;;;;;8.21;82.23;99194.81;4106797;28;20362;-87
2021/12/31 07:35:33;;;;;;;7.43;3.63;;;;;;;8.20;82.36;99193.13;4121644;28;20210;-87
2021/12/31 07:37:37;;;;;;;4.50;4.10;;;;;;;8.17;82.13;99193.53;4121277;28;20617;-85
2021/12/31 07:39:46;;;;;;;4.00;3.70;;;;;;;8.08;81.64;99183.97;4094884;28;20249;-83
2021/12/31 07:41:50;;;;;;;4.25;3.95;;;;;;;7.96;81.81;99174.78;4093106;28;20210;-87
2021/12/31 07:44:01;;;;;;;;;;;;;;;;;;;;;
2021/12/31 07:46:13;;;;;;;4.18;3.88;;;;;;;8.11;81.32;99168.00;4104031;28;20719;-85
2021/12/31 07:48:15;;;;;;;9.23;4.15;;;;;;;7.85;81.95;99187.22;4108998;28;20620;-86
2021/12/31 07:50:24;;;;;;;4.35;4.05;;;;;;;7.88;82.78;99185.94;4112522;28;20236;-87
2021/12/31 07:52:25;;;;;;;4.88;4.47;;;;;;;7.90;83.07;99197.47;4095480;28;20294;-86
2021/12/31 07:54:27;;;;;;;4.28;3.88;;;;;;;7.96;83.10;99196.59;4093666;28;20223;-87
2021/12/31 07:56:30;;;;;;;7.93;4.35;;;;;;;7.96;83.07;99196.59;4090058;28;20218;-89
2021/12/31 07:58:31;;;;;;;4.80;3.92;;;;;;;7.93;82.97;99192.41;4107046;28;20229;-88
2021/12/31 08:00:35;;;;;;;4.07;3.78;;;;;;;8.04;82.37;99180.00;4099692;28;20245;-87
2021/12/31 08:02:36;;;;;;;4.57;4.20;;;;;;;7.95;81.40;99176.66;4127426;28;20225;-88
2021/12/31 08:04:47;;;;;;;4.15;3.80;;;;;;;7.89;82.04;99190.34;4092953;28;20620;-89
2021/12/31 08:06:48;;;;;;;5.20;4.15;;;;;;;7.87;81.98;99197.88;4096208;29;20199;-89
2021/12/31 08:08:49;;;;;;;5.32;4.82;;;;;;;7.88;82.73;99207.75;4106277;28;20246;-91
2021/12/31 08:10:51;;;;;;;6.10;5.50;;;;;;;7.92;82.61;99217.16;4095541;29;20212;-91
2021/12/31 08:13:06;;;;;;;5.93;5.47;;;;;;;7.93;82.67;99213.38;4093448;28;20215;-90
2021/12/31 08:15:10;;;;;;;6.82;6.32;;;;;;;7.92;82.58;99211.69;4097554;28;20207;-89
2021/12/31 08:17:11;;;;;;;6.43;5.90;;;;;;;7.88;81.91;99207.75;4094377;28;20322;-91
2021/12/31 08:19:13;;;;;;;6.28;5.78;;;;;;;7.88;82.47;99205.03;4096549;28;20227;-91
2021/12/31 08:21:15;;;;;;;7.25;6.60;;;;;;;7.88;82.32;99205.03;4128280;28;20214;-90
2021/12/31 08:23:17;;;;;;;7.32;5.88;;;;;;;7.81;82.13;99205.03;4095545;28;20212;-90
2021/12/31 08:25:18;;;;;;;7.75;7.05;;;;;;;7.80;82.03;99197.06;4095666;28;20210;-90
2021/12/31 08:27:26;;;;;;;9.95;9.15;;;;;;;8.12;82.73;99199.66;4097132;28;20229;-91
2021/12/31 08:29:27;;;;;;;13.48;12.38;;;;;;;8.77;82.56;99198.41;4113488;28;20246;-90
2021/12/31 08:31:30;;;;;;;14.27;12.77;;;;;;;9.71;82.63;99200.66;4109995;28;20246;-89
2021/12/31 08:33:32;;;;;;;11.75;10.88;;;;;;;10.50;81.20;99205.94;4098552;28;20211;-88
2021/12/31 08:35:34;;;;;;;9.88;9.23;;;;;;;11.40;79.39;99217.31;4109187;28;20207;-87
2021/12/31 08:37:35;;;;;;;12.57;9.85;;;;;;;12.13;75.96;99215.69;4109298;28;20207;-87
2021/12/31 08:39:37;;;;;;;10.02;9.02;;;;;;;12.56;73.70;99210.53;4109093;28;20326;-87
2021/12/31 08:41:52;;;;;;;7.75;7.22;;;;;;;12.92;70.55;99215.56;4109870;28;20754;-87
2021/12/31 08:43:56;;;;;;;6.72;6.18;;;;;;;12.86;68.94;99211.91;4091511;28;20241;-87
2021/12/31 08:45:57;;;;;;;6.43;5.82;;;;;;;12.38;67.90;99197.81;4108214;28;20211;-87
2021/12/31 08:48:00;;;;;;;6.40;5.80;;;;;;;11.87;69.03;99211.59;4090399;28;20214;-87
2021/12/31 08:50:09;;;;;;;5.60;5.20;;;;;;;11.29;70.29;99216.22;4124107;28;20217;-88
2021/12/31 08:52:11;;;;;;;5.70;5.20;;;;;;;10.76;71.24;99216.50;4095803;28;20583;-87
2021/12/31 08:54:15;;;;;;;5.75;5.35;;;;;;;10.39;72.26;99213.03;4090362;28;20226;-86
2021/12/31 08:56:16;;;;;;;5.55;5.15;;;;;;;10.08;73.42;99220.63;4089091;28;20716;-86
2021/12/31 08:58:18;;;;;;;5.25;4.85;;;;;;;9.89;74.12;99213.47;4106862;28;20757;-85
2021/12/31 09:00:19;;;;;;;5.25;4.85;;;;;;;9.71;74.79;99210.72;4125969;28;20272;-86
2021/12/31 09:02:21;;;;;;;4.00;3.70;;;;;;;9.41;76.05;99215.28;4091878;28;20207;-86
2021/12/31 09:04:23;;;;;;;6.13;4.88;;;;;;;9.32;76.85;99212.00;4102597;28;20247;-86
2021/12/31 09:06:25;;;;;;;4.78;4.38;;;;;;;9.29;76.52;99217.88;4111616;28;20222;-87
2021/12/31 09:08:34;;;;;;;5.80;5.30;;;;;;;9.23;76.86;99201.59;4128134;28;20219;-86
2021/12/31 09:10:35;;;;;;;15.82;6.70;;;;;;;9.20;77.62;99212.94;4113958;28;20255;-86
2021/12/31 09:12:40;;;;;;;5.82;5.10;;;;;;;9.22;77.99;99205.38;4118242;28;20211;-86
2021/12/31 09:14:41;;;;;;;6.20;5.70;;;;;;;9.24;77.99;99208.72;4104371;28;20859;-87
2021/12/31 09:17:00;;;;;;;4.40;4.10;;;;;;;9.35;78.86;99207.97;4104987;28;20264;-86
2021/12/31 09:19:09;;;;;;;5.65;5.15;;;;;;;9.44;79.45;99206.63;4140555;28;20236;-85
2021/12/31 09:21:11;;;;;;;3.88;3.58;;;;;;;9.49;79.92;99198.59;4125014;28;20213;-86
2021/12/31 09:23:12;;;;;;;6.90;5.00;;;;;;;9.50;80.02;99192.91;4137711;28;20209;-85
2021/12/31 09:25:15;;;;;;;4.78;4.15;;;;;;;9.58;80.34;99194.47;4132806;28;20206;-86
2021/12/31 09:27:17;;;;;;;6.28;4.25;;;;;;;9.64;80.45;99193.56;4125266;28;20584;-85
2021/12/31 09:29:20;;;;;;;4.57;2.58;;;;;;;9.78;80.25;99184.16;4136079;28;20237;-86
2021/12/31 09:31:22;;;;;;;2.50;2.30;;;;;;;9.80;80.56;99192.94;4121728;28;20765;-86
2021/12/31 09:33:34;;;;;;;4.07;2.60;;;;;;;9.87;80.44;99191.00;4158413;28;20201;-86
2021/12/31 09:35:36;;;;;;;2.80;2.42;;;;;;;9.94;80.01;99189.03;4118930;28;20217;-88
2021/12/31 09:37:38;;;;;;;4.03;3.22;;;;;;;9.95;79.87;99198.91;4136344;28;21264;-88
2021/12/31 09:39:40;;;;;;;2.40;2.20;;;;;;;9.98;80.11;99199.28;4140124;28;20240;-87
2021/12/31 09:41:42;;;;;;;1.85;1.67;;;;;;;10.06;79.99;99192.66;4124337;28;20206;-86
2021/12/31 09:43:52;;;;;;;2.25;2.05;;;;;;;10.10;79.97;99192.00;4124152;28;20265;-86
2021/12/31 09:45:54;;;;;;;3.03;2.22;;;;;;;10.17;79.81;99191.91;4118482;28;20220;-86
2021/12/31 09:47:59;;;;;;;2.55;1.58;;;;;;;10.30;79.01;99188.97;4123290;28;20249;-86
2021/12/31 09:50:01;;;;;;;2.55;1.80;;;;;;;10.35;78.71;99186.38;4124833;28;20201;-85
2021/12/31 09:52:03;;;;;;;2.95;1.58;;;;;;;10.39;78.69;99187.56;4127203;28;20217;-88
2021/12/31 09:54:21;;;;;;;2.38;1.77;;;;;;;10.44;78.99;99195.94;4143204;28;20202;-85
2021/12/31 09:56:27;;;;;;;2.35;1.98;;;;;;;10.56;78.77;99189.41;4144114;28;20263;-88
2021/12/31 09:58:29;;;;;;;3.63;2.22;;;;;;;10.66;78.97;99194.31;4126886;28;20756;-88
2021/12/31 10:00:30;;;;;;;1.95;1.67;;;;;;;10.76;78.21;99191.88;4127006;28;20253;-87
2021/12/31 10:02:35;;;;;;;3.45;1.88;;;;;;;10.84;77.99;99179.50;4125332;28;20845;-87
2021/12/31 10:04:51;;;;;;;2.90;1.90;;;;;;;10.99;78.10;99185.38;4144126;28;20733;-85
2021/12/31 10:07:06;;;;;;;2.45;1.50;;;;;;;11.44;76.21;99189.16;4125954;28;20210;-87
2021/12/31 10:09:08;;;;;;;1.55;1.38;;;;;;;12.12;73.92;99181.91;4125350;28;20222;-85
2021/12/31 10:11:34;;;;;;;2.67;1.70;;;;;;;12.64;73.09;99188.16;4147894;28;20221;-84
2021/12/31 10:13:39;;;;;;;1.95;1.42;;;;;;;13.15;71.81;99194.31;4133425;28;20210;-85
2021/12/31 10:15:41;;;;;;;3.25;1.67;;;;;;;13.36;69.49;99193.53;4143698;28;20226;-85